Time;durP1;ratioP1;P1;durP2;ratioP2;P2;SDS_P1;SDS_P2;PMS_P1;PMS_P2;Temp;Humidity;BMP_temperature;BMP_pressure;BME280_temperature;BME280_humidity;BME280_pressure;Samples;Min_cycle;Max_cycle;Signal;HPM_P1;HPM_P2
2022/08/10 00:00:19;;;;;;;11.30;7.10;;;;;;;17.66;60.38;101123.09;106246;1277;138768;-66
2022/08/10 00:02:20;;;;;;;14.60;6.70;;;;;;;17.65;60.45;101123.83;106015;1277;108867;-66
2022/08/10 00:04:52;;;;;;;8.80;6.20;;;;;;;17.62;60.58;101124.67;106348;1274;96589;-66
2022/08/10 00:07:24;;;;;;;13.30;6.70;;;;;;;17.62;60.61;101127.65;105874;1274;138654;-67
2022/08/10 00:09:56;;;;;;;9.30;6.80;;;;;;;17.61;60.72;101127.34;106101;1276;111261;-67
2022/08/10 00:12:29;;;;;;;9.90;6.30;;;;;;;17.61;60.78;101124.73;105999;1274;138487;-67
2022/08/10 00:15:23;;;;;;;9.50;6.10;;;;;;;17.60;60.97;101127.74;106036;1274;107908;-67
2022/08/10 00:18:15;;;;;;;12.80;6.40;;;;;;;17.59;61.01;101128.67;105926;1274;138658;-67
2022/08/10 00:21:08;;;;;;;10.20;6.10;;;;;;;17.55;61.05;101125.14;106051;1277;96612;-66
2022/08/10 00:23:40;;;;;;;8.80;6.60;;;;;;;17.54;61.22;101123.80;107494;1274;139152;-66
2022/08/10 00:26:12;;;;;;;10.60;6.40;;;;;;;17.53;61.41;101127.52;107538;1276;107860;-67
2022/08/10 00:28:45;;;;;;;8.00;6.40;;;;;;;17.52;61.37;101125.27;107516;1275;108990;-67
2022/08/10 00:31:17;;;;;;;10.80;6.60;;;;;;;17.49;61.53;101122.25;107334;1275;139295;-67
2022/08/10 00:33:49;;;;;;;10.20;6.40;;;;;;;17.48;61.48;101127.41;107567;1274;94750;-66
2022/08/10 00:36:21;;;;;;;11.50;6.40;;;;;;;17.47;61.62;101125.69;107445;1274;139116;-67
2022/08/10 00:38:54;;;;;;;10.90;6.20;;;;;;;17.47;61.56;101124.14;107076;1274;108622;-66
2022/08/10 00:41:26;;;;;;;10.50;5.80;;;;;;;17.45;61.57;101119.83;106266;1276;143104;-66
2022/08/10 00:43:58;;;;;;;10.00;5.90;;;;;;;17.42;61.69;101118.56;106093;1276;96488;-66
2022/08/10 00:46:30;;;;;;;9.30;6.10;;;;;;;17.38;61.72;101122.09;106106;1274;96506;-66
2022/08/10 00:49:03;;;;;;;8.60;5.70;;;;;;;17.34;61.81;101118.94;106020;1274;138330;-66
2022/08/10 00:51:35;;;;;;;10.80;6.00;;;;;;;17.29;62.05;101118.48;106083;1274;109069;-67
2022/08/10 00:54:19;;;;;;;9.90;5.50;;;;;;;17.23;62.10;101124.55;105913;1275;140342;-67
2022/08/10 00:56:55;;;;;;;9.30;5.50;;;;;;;17.18;62.30;101126.70;106011;1276;96524;-66
2022/08/10 00:59:47;;;;;;;9.50;5.70;;;;;;;17.14;62.50;101128.27;107420;1275;138441;-67
2022/08/10 01:02:34;;;;;;;10.10;5.80;;;;;;;17.13;62.68;101124.83;107099;1276;111298;-66
2022/08/10 01:05:13;;;;;;;6.60;5.60;;;;;;;17.10;62.66;101125.67;106107;1276;108730;-66
2022/08/10 01:08:15;;;;;;;9.90;6.10;;;;;;;17.07;62.76;101125.79;107339;1276;139050;-66
2022/08/10 01:10:59;;;;;;;9.60;6.20;;;;;;;17.03;62.82;101128.08;106240;1276;96556;-66
2022/08/10 01:13:38;;;;;;;8.50;5.40;;;;;;;17.00;62.95;101130.14;107414;1274;138658;-67
2022/08/10 01:16:17;;;;;;;9.90;5.60;;;;;;;17.02;63.00;101126.56;107554;1274;111088;-67
2022/08/10 01:18:55;;;;;;;7.00;5.70;;;;;;;17.00;63.06;101130.35;107489;1275;138905;-67
2022/08/10 01:22:09;;;;;;;10.20;5.90;;;;;;;16.96;63.20;101128.94;107579;1274;109043;-66
2022/08/10 01:25:30;;;;;;;8.30;5.80;;;;;;;16.96;63.30;101129.30;107464;1274;138714;-66
2022/08/10 01:28:14;;;;;;;7.80;5.70;;;;;;;16.93;63.45;101127.81;107535;1275;94720;-67
2022/08/10 01:30:51;;;;;;;11.20;6.00;;;;;;;16.93;63.54;101128.90;107338;1275;138214;-66
2022/08/10 01:33:29;;;;;;;11.80;5.90;;;;;;;16.93;63.54;101128.34;106156;1276;108885;-66
2022/08/10 01:36:27;;;;;;;7.70;5.70;;;;;;;16.93;63.68;101129.09;106038;1275;140427;-66
2022/08/10 01:39:07;;;;;;;8.10;5.80;;;;;;;16.93;63.83;101128.54;106070;1276;97004;-66
2022/08/10 01:41:43;;;;;;;7.40;5.80;;;;;;;16.93;63.82;101129.05;105961;1276;139530;-66
2022/08/10 01:44:23;;;;;;;8.90;6.10;;;;;;;16.93;63.89;101133.30;106120;1274;111762;-66
2022/08/10 01:48:27;;;;;;;10.70;5.60;;;;;;;16.91;64.00;101133.71;106093;1276;109071;-65
2022/08/10 01:50:00;;;;;;;8.00;5.70;;;;;;;16.89;63.96;101131.37;106003;1275;107937;-67
2022/08/10 01:52:35;;;;;;;6.90;5.40;;;;;;;16.87;63.99;101132.11;106080;1274;96489;-67
2022/08/10 01:55:10;;;;;;;7.20;5.40;;;;;;;16.83;64.03;101132.27;107261;1274;138684;-66
2022/08/10 01:57:43;;;;;;;8.70;5.40;;;;;;;16.81;64.16;101131.31;106320;1276;109981;-67
2022/08/10 02:00:17;;;;;;;8.40;5.70;;;;;;;16.79;64.24;101132.46;105878;1274;138532;-66
2022/08/10 02:02:51;;;;;;;10.10;5.80;;;;;;;16.78;64.38;101129.34;107559;1275;107639;-67
2022/08/10 02:05:28;;;;;;;6.60;5.60;;;;;;;16.77;64.41;101130.81;107397;1274;162292;-67
2022/08/10 02:08:03;;;;;;;7.00;5.70;;;;;;;16.74;64.38;101128.32;107601;1275;94564;-67
2022/08/10 02:10:36;;;;;;;8.20;6.00;;;;;;;16.71;64.43;101130.42;107564;1274;109014;-67
2022/08/10 02:13:08;;;;;;;9.60;6.70;;;;;;;16.67;64.53;101126.16;107240;1276;138335;-69
2022/08/10 02:15:44;;;;;;;12.50;6.70;;;;;;;16.63;64.66;101130.14;106033;1276;110036;-67
2022/08/10 02:18:35;;;;;;;8.90;6.10;;;;;;;16.61;64.64;101130.77;105855;1276;138648;-66
2022/08/10 02:21:10;;;;;;;11.40;6.50;;;;;;;16.58;64.78;101135.27;107494;1276;94392;-66
2022/08/10 02:23:45;;;;;;;12.30;7.30;;;;;;;16.55;64.86;101135.77;107500;1274;139212;-66
2022/08/10 02:26:31;;;;;;;11.80;6.70;;;;;;;16.54;65.07;101137.96;106310;1276;108908;-65
2022/08/10 02:29:04;;;;;;;12.70;7.50;;;;;;;16.53;65.11;101138.88;106150;1274;109109;-66
2022/08/10 02:31:37;;;;;;;9.30;6.40;;;;;;;16.51;65.09;101139.48;107378;1274;139755;-66
2022/08/10 02:34:13;;;;;;;14.10;6.30;;;;;;;16.47;65.26;101137.00;106251;1276;96516;-66
2022/08/10 02:36:50;;;;;;;8.90;5.90;;;;;;;16.45;65.40;101141.29;107430;1274;139888;-66
2022/08/10 02:39:24;;;;;;;10.50;6.10;;;;;;;16.43;65.47;101144.71;107459;1276;108772;-66
2022/08/10 02:42:01;;;;;;;10.60;5.80;;;;;;;16.41;65.55;101143.05;106969;1276;139007;-67
2022/08/10 02:44:59;;;;;;;10.20;6.40;;;;;;;16.38;65.51;101147.92;106022;1276;96676;-66
2022/08/10 02:47:58;;;;;;;13.50;6.50;;;;;;;16.38;65.79;101146.35;107343;1276;138617;-66
2022/08/10 02:50:34;;;;;;;10.70;6.00;;;;;;;16.37;65.83;101145.89;107367;1276;112381;-66
2022/08/10 02:53:15;;;;;;;12.50;6.50;;;;;;;16.36;65.83;101145.39;106135;1276;109053;-66
2022/08/10 02:56:10;;;;;;;18.20;9.80;;;;;;;16.35;65.94;101149.82;106013;1276;108756;-66
2022/08/10 02:58:47;;;;;;;9.70;6.70;;;;;;;16.33;65.98;101148.98;107531;1274;94787;-66
2022/08/10 03:01:23;;;;;;;15.40;9.40;;;;;;;16.36;66.09;101149.77;106111;1276;138461;-67
2022/08/10 03:04:00;;;;;;;13.20;7.80;;;;;;;16.36;66.04;101149.61;106160;1276;111351;-67
2022/08/10 03:06:38;;;;;;;10.60;7.20;;;;;;;16.35;66.16;101149.46;105945;1275;138638;-64
2022/08/10 03:09:13;;;;;;;10.80;7.30;;;;;;;16.33;66.20;101149.31;106111;1276;108937;-66
2022/08/10 03:11:46;;;;;;;12.10;7.60;;;;;;;16.32;66.22;101144.11;107278;1276;138732;-66
2022/08/10 03:14:40;;;;;;;10.20;7.80;;;;;;;16.32;66.37;101150.25;107555;1274;94725;-66
2022/08/10 03:17:14;;;;;;;11.90;8.30;;;;;;;16.31;66.49;101151.86;107521;1275;109787;-66
2022/08/10 03:19:48;;;;;;;12.20;8.50;;;;;;;16.31;66.47;101151.16;107568;1274;107867;-66
2022/08/10 03:22:41;;;;;;;14.40;8.00;;;;;;;16.32;66.55;101152.33;107530;1276;109394;-66
2022/08/10 03:25:14;;;;;;;12.90;8.40;;;;;;;16.35;66.63;101155.60;107429;1274;138709;-67
2022/08/10 03:27:47;;;;;;;11.50;8.90;;;;;;;16.36;66.45;101155.73;107581;1273;94580;-67
2022/08/10 03:30:20;;;;;;;11.90;8.40;;;;;;;16.33;66.38;101157.41;106176;1274;141862;-67
2022/08/10 03:33:06;;;;;;;13.60;9.10;;;;;;;16.32;66.49;101154.11;106151;1274;107876;-66
2022/08/10 03:35:39;;;;;;;11.60;8.40;;;;;;;16.32;66.47;101157.09;105912;1274;138784;-66
2022/08/10 03:38:32;;;;;;;11.00;8.40;;;;;;;16.34;66.64;101159.30;106074;1274;96533;-66
2022/08/10 03:41:08;;;;;;;14.60;9.80;;;;;;;16.36;66.69;101154.69;106147;1274;96406;-66
2022/08/10 03:43:43;;;;;;;15.90;9.70;;;;;;;16.37;66.54;101159.04;107461;1274;138197;-66
2022/08/10 03:46:18;;;;;;;14.40;9.90;;;;;;;16.37;66.47;101162.38;107472;1276;108901;-66
2022/08/10 03:48:55;;;;;;;13.60;10.70;;;;;;;16.37;66.55;101159.73;105964;1276;138818;-66
2022/08/10 03:51:33;;;;;;;15.60;10.10;;;;;;;16.38;66.56;101160.73;106074;1274;96893;-66
2022/08/10 03:54:06;;;;;;;15.50;10.40;;;;;;;16.40;66.80;101161.91;105979;1276;139829;-66
2022/08/10 03:56:40;;;;;;;16.90;11.90;;;;;;;16.44;66.78;101163.27;106566;1274;111173;-66
2022/08/10 03:59:16;;;;;;;16.40;11.60;;;;;;;16.49;66.68;101166.21;107542;1275;108940;-66
2022/08/10 04:01:50;;;;;;;13.40;10.40;;;;;;;16.52;66.48;101170.31;107573;1274;107859;-66
2022/08/10 04:04:43;;;;;;;15.10;9.90;;;;;;;16.52;66.49;101172.79;107011;1274;95959;-66
2022/08/10 04:07:15;;;;;;;18.30;10.10;;;;;;;16.54;66.54;101172.70;106241;1276;139781;-65
2022/08/10 04:09:47;;;;;;;15.10;9.60;;;;;;;16.57;66.47;101172.55;106109;1275;113238;-65
2022/08/10 04:12:27;;;;;;;17.10;8.60;;;;;;;16.62;66.46;101176.39;106071;1275;138895;-65
2022/08/10 04:14:59;;;;;;;12.90;8.80;;;;;;;16.66;66.56;101176.74;106122;1274;109098;-65
2022/08/10 04:17:32;;;;;;;16.20;9.20;;;;;;;16.73;66.65;101179.48;105968;1274;138959;-65
2022/08/10 04:20:30;;;;;;;13.40;8.20;;;;;;;16.81;66.56;101181.23;106010;1276;96366;-65
2022/08/10 04:23:09;;;;;;;19.20;8.90;;;;;;;16.88;66.55;101182.30;107577;1274;111613;-65
2022/08/10 04:25:42;;;;;;;15.20;9.00;;;;;;;16.96;66.33;101183.55;107455;1274;138564;-65
2022/08/10 04:28:14;;;;;;;16.50;8.70;;;;;;;17.02;66.28;101184.01;106932;1274;108932;-66
2022/08/10 04:30:48;;;;;;;15.20;9.10;;;;;;;17.09;66.10;101181.61;106006;1274;139661;-67
2022/08/10 04:33:23;;;;;;;12.40;8.80;;;;;;;17.17;66.03;101181.41;106003;1276;96392;-65
2022/08/10 04:35:57;;;;;;;13.40;9.90;;;;;;;17.27;66.00;101183.77;105939;1276;138708;-66
2022/08/10 04:38:32;;;;;;;13.80;8.50;;;;;;;17.39;65.89;101186.21;106101;1275;110181;-66
2022/08/10 04:41:04;;;;;;;14.40;9.40;;;;;;;17.51;65.82;101189.52;106047;1275;109052;-66
2022/08/10 04:43:37;;;;;;;21.70;9.90;;;;;;;17.64;65.63;101186.27;106377;1276;139526;-66
2022/08/10 04:46:09;;;;;;;13.90;9.20;;;;;;;17.78;65.44;101183.54;106068;1275;96390;-66
2022/08/10 04:49:01;;;;;;;17.40;9.70;;;;;;;17.98;65.40;101187.67;107497;1274;138946;-66
2022/08/10 04:51:35;;;;;;;20.00;11.30;;;;;;;18.19;65.26;101187.19;107053;1274;109211;-66
2022/08/10 04:54:07;;;;;;;19.30;10.30;;;;;;;18.41;64.73;101184.55;106018;1274;138984;-66
2022/08/10 04:56:45;;;;;;;13.10;8.90;;;;;;;18.66;64.37;101188.93;106051;1274;97129;-66
2022/08/10 04:59:17;;;;;;;16.60;9.50;;;;;;;18.95;64.29;101192.75;106092;1274;96432;-66
2022/08/10 05:01:49;;;;;;;13.00;9.60;;;;;;;19.28;63.76;101197.00;105954;1276;111250;-66
2022/08/10 05:04:41;;;;;;;13.30;8.50;;;;;;;19.72;62.97;101202.73;105991;1276;108490;-66
2022/08/10 05:07:15;;;;;;;11.40;7.50;;;;;;;20.50;62.76;101194.91;105975;1274;138689;-66
2022/08/10 05:09:50;;;;;;;10.50;7.00;;;;;;;22.03;61.20;101194.33;106103;1275;96531;-65
2022/08/10 05:12:37;;;;;;;15.50;8.00;;;;;;;23.63;58.56;101188.70;106030;1274;137959;-64
2022/08/10 05:15:12;;;;;;;18.30;7.10;;;;;;;24.88;56.34;101187.05;106067;1274;111431;-65
2022/08/10 05:17:45;;;;;;;15.10;7.10;;;;;;;25.98;53.84;101183.34;106275;1274;138259;-66
2022/08/10 05:20:37;;;;;;;11.10;6.30;;;;;;;27.08;51.74;101185.12;106064;1275;107909;-66
2022/08/10 05:23:09;;;;;;;13.10;6.70;;;;;;;28.01;49.66;101183.13;106475;1274;96497;-68
2022/08/10 05:25:42;;;;;;;11.40;6.90;;;;;;;28.92;47.96;101180.58;106044;1275;137592;-66
2022/08/10 05:28:14;;;;;;;12.40;6.40;;;;;;;29.73;45.64;101179.20;106137;1274;111410;-67
2022/08/10 05:30:46;;;;;;;9.80;5.90;;;;;;;30.51;44.01;101177.16;105982;1274;137899;-64
2022/08/10 05:33:19;;;;;;;13.90;6.10;;;;;;;31.40;42.10;101177.98;106930;1275;107678;-66
2022/08/10 05:35:52;;;;;;;14.70;4.90;;;;;;;32.36;40.84;101176.48;106011;1275;138024;-64
2022/08/10 05:38:30;;;;;;;10.10;5.70;;;;;;;33.46;39.31;101176.60;107600;1275;95172;-67
2022/08/10 05:41:02;;;;;;;13.30;5.90;;;;;;;34.58;38.22;101175.52;106326;1275;112505;-67
2022/08/10 05:43:35;;;;;;;14.40;5.90;;;;;;;35.64;36.79;101181.13;107359;1276;138946;-67
2022/08/10 05:46:07;;;;;;;10.30;5.20;;;;;;;36.65;35.23;101171.42;107148;1276;107853;-67
2022/08/10 05:48:51;;;;;;;8.10;4.80;;;;;;;37.51;33.94;101173.02;106040;1275;137903;-67
2022/08/10 05:51:32;;;;;;;8.70;4.60;;;;;;;38.37;32.90;101174.62;106143;1276;96527;-67
2022/08/10 05:54:13;;;;;;;12.00;4.80;;;;;;;39.18;31.61;101172.67;106033;1275;138264;-69
2022/08/10 05:56:49;;;;;;;10.10;4.60;;;;;;;39.79;30.48;101174.66;107578;1275;108827;-69
2022/08/10 05:59:32;;;;;;;11.10;5.00;;;;;;;40.25;29.69;101175.68;107339;1276;138121;-69
2022/08/10 06:02:27;;;;;;;9.70;5.50;;;;;;;40.76;28.57;101174.52;107529;1276;94788;-68
2022/08/10 06:05:09;;;;;;;9.30;4.60;;;;;;;40.96;27.55;101173.91;107488;1275;94478;-70
2022/08/10 06:07:46;;;;;;;10.10;4.50;;;;;;;41.21;27.37;101172.73;107495;1274;137930;-66
2022/08/10 06:10:20;;;;;;;12.10;4.70;;;;;;;41.66;27.09;101178.52;107572;1274;109262;-69
2022/08/10 06:16:09;;;;;;;12.00;4.10;;;;;;;42.23;25.65;101183.98;106115;1276;96521;-67
2022/08/10 06:18:42;;;;;;;11.40;3.90;;;;;;;42.36;25.39;101187.34;106122;1276;137697;-69
2022/08/10 06:21:15;;;;;;;9.50;4.20;;;;;;;42.59;25.09;101185.08;106859;1274;110866;-68
2022/08/10 06:23:50;;;;;;;6.90;3.30;;;;;;;42.63;24.25;101182.86;106145;1274;137916;-67
2022/08/10 06:26:22;;;;;;;7.20;3.30;;;;;;;42.61;24.29;101186.15;106078;1274;109278;-68
2022/08/10 06:28:59;;;;;;;6.30;3.00;;;;;;;42.93;24.06;101189.06;106045;1274;96540;-68
2022/08/10 06:31:39;;;;;;;6.00;3.10;;;;;;;43.31;23.58;101183.64;105962;1276;137679;-68
2022/08/10 06:34:26;;;;;;;7.00;2.40;;;;;;;43.65;23.00;101192.10;106073;1275;111105;-68
2022/08/10 06:37:01;;;;;;;7.10;2.80;;;;;;;43.98;22.62;101189.21;107439;1274;137696;-68
2022/08/10 06:39:31;;;;;;;;;;;;;;;44.39;22.24;101192.94;106969;1275;108260;-68
2022/08/10 06:42:16;;;;;;;7.70;2.80;;;;;;;44.63;21.88;101184.38;107450;1274;124446;-68
2022/08/10 06:44:58;;;;;;;8.80;3.80;;;;;;;44.73;21.45;101184.26;106897;1274;94864;-67
2022/08/10 06:47:37;;;;;;;11.50;4.40;;;;;;;44.64;20.87;101182.77;106090;1275;138297;-68
2022/08/10 06:50:15;;;;;;;9.60;4.30;;;;;;;43.90;20.87;101182.95;105964;1276;108824;-69
2022/08/10 06:53:15;;;;;;;13.40;3.20;;;;;;;44.04;21.44;101180.24;106239;1274;107802;-66
2022/08/10 06:55:52;;;;;;;5.20;2.60;;;;;;;44.52;21.34;101178.59;105914;1276;96493;-67
2022/08/10 06:58:34;;;;;;;6.00;2.20;;;;;;;44.87;20.83;101175.05;106094;1276;96519;-67
2022/08/10 07:01:08;;;;;;;8.90;2.30;;;;;;;45.03;20.65;101170.38;106105;1274;137650;-68
2022/08/10 07:03:47;;;;;;;5.10;1.80;;;;;;;44.94;20.53;101173.23;106092;1275;109011;-68
2022/08/10 07:06:21;;;;;;;4.70;1.80;;;;;;;44.84;20.25;101173.40;107479;1274;137759;-68
2022/08/10 07:08:54;;;;;;;4.00;1.70;;;;;;;44.80;20.22;101174.29;107553;1275;94773;-68
2022/08/10 07:11:28;;;;;;;6.60;1.60;;;;;;;44.72;20.16;101174.44;106010;1276;137791;-68
2022/08/10 07:14:03;;;;;;;2.20;1.50;;;;;;;44.64;19.98;101174.61;107023;1275;111130;-66
2022/08/10 07:16:50;;;;;;;4.90;1.80;;;;;;;44.47;20.04;101179.98;106092;1274;108339;-68
2022/08/10 07:19:24;;;;;;;2.40;1.80;;;;;;;44.41;19.95;101181.71;105957;1275;137742;-68
2022/08/10 07:21:57;;;;;;;5.30;1.40;;;;;;;44.45;20.02;101179.67;105958;1276;96495;-66
2022/08/10 07:24:31;;;;;;;3.00;1.50;;;;;;;44.65;19.68;101173.48;105896;1276;137797;-69
2022/08/10 07:27:06;;;;;;;3.70;1.50;;;;;;;44.91;19.22;101171.99;106459;1275;111198;-67
2022/08/10 07:29:42;;;;;;;2.40;1.40;;;;;;;44.99;18.93;101169.07;106140;1275;138240;-67
2022/08/10 07:32:27;;;;;;;4.20;1.40;;;;;;;45.01;18.56;101169.41;107519;1275;109272;-67
2022/08/10 07:35:01;;;;;;;2.40;1.40;;;;;;;45.08;18.68;101171.17;107555;1274;96400;-67
2022/08/10 07:37:37;;;;;;;2.70;1.20;;;;;;;45.23;18.29;101166.24;107428;1275;138113;-67
2022/08/10 07:40:13;;;;;;;13.80;4.20;;;;;;;45.29;18.23;101169.59;106352;1274;112384;-67
2022/08/10 07:42:48;;;;;;;4.30;1.50;;;;;;;45.25;17.86;101169.20;107107;1274;138148;-67
2022/08/10 07:45:21;;;;;;;2.20;1.30;;;;;;;44.92;17.70;101171.10;106159;1274;108334;-66
2022/08/10 07:48:03;;;;;;;3.00;1.30;;;;;;;44.74;17.84;101172.56;106059;1274;138288;-68
2022/08/10 07:50:41;;;;;;;2.60;1.60;;;;;;;44.22;17.84;101175.23;106129;1274;97859;-67
2022/08/10 07:53:17;;;;;;;2.00;1.20;;;;;;;43.92;18.57;101174.47;106102;1274;112563;-67
2022/08/10 07:55:52;;;;;;;3.10;1.40;;;;;;;44.14;18.60;101175.75;106114;1274;108880;-67
2022/08/10 07:58:48;;;;;;;2.20;1.10;;;;;;;44.54;18.52;101176.20;106071;1275;108864;-68
2022/08/10 08:01:30;;;;;;;4.10;1.40;;;;;;;44.83;18.24;101174.99;105985;1275;137963;-68
2022/08/10 08:04:06;;;;;;;3.20;1.40;;;;;;;44.54;17.92;101177.08;106402;1276;98125;-67
2022/08/10 08:06:44;;;;;;;1.70;1.10;;;;;;;43.84;18.14;101179.23;106001;1276;137815;-67
2022/08/10 08:09:18;;;;;;;5.20;1.30;;;;;;;43.54;18.46;101181.81;105960;1276;108687;-68
2022/08/10 08:11:52;;;;;;;2.30;1.30;;;;;;;42.34;18.28;101178.73;106443;1275;138229;-67
2022/08/10 08:14:26;;;;;;;1.80;1.30;;;;;;;40.97;18.87;101181.41;107288;1274;97133;-68
2022/08/10 08:16:59;;;;;;;1.60;1.30;;;;;;;39.81;19.76;101184.09;106136;1274;98184;-68
2022/08/10 08:19:33;;;;;;;1.00;0.90;;;;;;;38.80;20.28;101179.52;107298;1274;138032;-68
2022/08/10 08:22:09;;;;;;;2.10;1.40;;;;;;;37.69;20.93;101180.36;106085;1274;109080;-68
2022/08/10 08:25:03;;;;;;;3.10;1.30;;;;;;;36.86;21.86;101174.63;105832;1276;137956;-66
2022/08/10 08:27:43;;;;;;;2.90;1.40;;;;;;;36.51;22.94;101174.24;105950;1274;97694;-67
2022/08/10 08:30:21;;;;;;;2.10;1.40;;;;;;;36.54;23.54;101170.13;106455;1275;138196;-68
2022/08/10 08:33:00;;;;;;;3.70;1.40;;;;;;;37.09;23.58;101169.77;106117;1276;112482;-67
2022/08/10 08:35:34;;;;;;;3.90;1.50;;;;;;;37.34;23.25;101172.52;106038;1274;138196;-67
2022/08/10 08:38:07;;;;;;;3.70;1.70;;;;;;;36.94;23.03;101165.58;107388;1275;108683;-69
2022/08/10 08:41:07;;;;;;;4.30;1.60;;;;;;;35.93;23.56;101172.34;107563;1274;95892;-69
2022/08/10 08:43:51;;;;;;;2.30;1.50;;;;;;;35.68;24.73;101177.31;107447;1274;139910;-69
2022/08/10 08:46:44;;;;;;;4.30;2.80;;;;;;;36.26;24.87;101168.94;106229;1276;111789;-68
2022/08/10 08:49:45;;;;;;;2.80;1.60;;;;;;;36.98;24.76;101168.65;105839;1276;138062;-68
2022/08/10 08:52:50;;;;;;;2.60;1.50;;;;;;;37.67;24.28;101162.02;107592;1274;108933;-68
2022/08/10 08:55:44;;;;;;;2.40;1.30;;;;;;;38.20;23.66;101166.06;106081;1274;137901;-67
2022/08/10 08:58:59;;;;;;;2.50;1.20;;;;;;;38.58;23.33;101161.80;106069;1274;97827;-67
2022/08/10 09:01:54;;;;;;;1.20;1.00;;;;;;;38.82;22.89;101156.35;107521;1275;138150;-68
2022/08/10 09:04:44;;;;;;;1.30;1.10;;;;;;;38.97;23.09;101162.53;107213;1276;109123;-68
2022/08/10 09:07:51;;;;;;;2.30;1.70;;;;;;;39.03;22.69;101158.11;106001;1276;138001;-68
2022/08/10 09:10:44;;;;;;;2.00;1.40;;;;;;;38.63;22.23;101151.54;106081;1275;97838;-67
2022/08/10 09:13:28;;;;;;;1.90;1.30;;;;;;;38.04;22.47;101151.49;106024;1275;137756;-68
2022/08/10 09:16:16;;;;;;;3.60;1.40;;;;;;;38.02;23.08;101147.29;106095;1276;112538;-67
2022/08/10 09:18:53;;;;;;;2.60;1.40;;;;;;;38.12;23.44;101147.94;106041;1274;137944;-67
2022/08/10 09:21:36;;;;;;;2.90;1.40;;;;;;;37.95;22.82;101145.94;107603;1275;108637;-67
2022/08/10 09:24:36;;;;;;;2.50;1.50;;;;;;;36.88;23.00;101148.25;106291;1274;137925;-67
2022/08/10 09:27:19;;;;;;;2.90;1.50;;;;;;;36.61;23.69;101147.60;106434;1274;97848;-69
2022/08/10 09:29:57;;;;;;;2.80;1.40;;;;;;;36.82;24.35;101144.67;106693;1274;137937;-68
2022/08/10 09:32:39;;;;;;;2.00;1.30;;;;;;;36.80;23.95;101143.36;105980;1275;108660;-67
2022/08/10 09:35:48;;;;;;;1.60;1.20;;;;;;;36.05;23.38;101145.66;107402;1275;138061;-67
2022/08/10 09:38:51;;;;;;;3.50;1.50;;;;;;;34.95;23.93;101151.63;107246;1276;96176;-68
2022/08/10 09:41:36;;;;;;;1.60;1.20;;;;;;;34.17;24.34;101150.64;106879;1275;137884;-67
2022/08/10 09:44:15;;;;;;;3.00;1.70;;;;;;;33.45;24.70;101150.25;106031;1275;112389;-69
2022/08/10 09:47:18;;;;;;;4.10;2.00;;;;;;;32.79;25.30;101144.93;107516;1275;109480;-67
2022/08/10 09:50:05;;;;;;;2.90;1.70;;;;;;;32.41;26.26;101141.92;106079;1276;108093;-69
2022/08/10 09:52:48;;;;;;;2.60;1.40;;;;;;;31.71;26.50;101142.41;106010;1274;97840;-69
2022/08/10 09:55:40;;;;;;;2.30;1.10;;;;;;;30.97;27.08;101150.87;106488;1274;138362;-69
2022/08/10 09:58:40;;;;;;;4.70;1.30;;;;;;;31.05;27.73;101144.71;107032;1275;112405;-70
2022/08/10 10:01:24;;;;;;;1.80;1.20;;;;;;;31.58;28.15;101136.88;107435;1274;137951;-71
2022/08/10 10:04:26;;;;;;;3.50;1.50;;;;;;;32.20;28.18;101134.52;107499;1274;109133;-70
2022/08/10 10:07:05;;;;;;;3.40;1.20;;;;;;;32.71;27.57;101125.29;107316;1274;139639;-70
2022/08/10 10:09:46;;;;;;;2.80;1.20;;;;;;;33.13;27.14;101121.98;107608;1274;97442;-70
2022/08/10 10:12:25;;;;;;;2.50;1.20;;;;;;;33.49;27.36;101121.94;106299;1276;141264;-69
2022/08/10 10:15:21;;;;;;;2.80;1.40;;;;;;;33.93;27.29;101118.23;106630;1276;109076;-69
2022/08/10 10:18:10;;;;;;;3.30;1.40;;;;;;;33.79;26.17;101119.39;106787;1275;138094;-70
2022/08/10 10:20:52;;;;;;;5.50;1.50;;;;;;;33.09;25.88;101123.07;106164;1276;97852;-69
2022/08/10 10:23:38;;;;;;;2.70;1.60;;;;;;;32.44;26.34;101122.64;107428;1274;137885;-69
2022/08/10 10:26:20;;;;;;;2.40;1.60;;;;;;;31.91;27.04;101118.76;107521;1275;112379;-70
2022/08/10 10:29:04;;;;;;;4.10;1.50;;;;;;;31.31;27.51;101123.13;107196;1274;108857;-69
2022/08/10 10:32:03;;;;;;;1.70;1.40;;;;;;;30.66;27.99;101128.95;106073;1276;108424;-70
2022/08/10 10:34:40;;;;;;;3.80;1.60;;;;;;;30.19;28.56;101117.60;107473;1275;97376;-70
2022/08/10 10:37:13;;;;;;;1.90;1.30;;;;;;;29.80;29.15;101121.52;106246;1276;138782;-69
2022/08/10 10:39:51;;;;;;;3.80;1.50;;;;;;;29.50;29.82;101120.27;106135;1275;112594;-69
2022/08/10 10:42:35;;;;;;;2.10;1.50;;;;;;;29.16;30.09;101123.77;107091;1275;138788;-69
2022/08/10 10:45:31;;;;;;;5.80;2.70;;;;;;;28.77;30.40;101120.26;106337;1275;108848;-69
2022/08/10 10:48:15;;;;;;;5.40;1.90;;;;;;;28.49;30.83;101121.73;107408;1274;137963;-69
2022/08/10 10:51:03;;;;;;;5.20;2.60;;;;;;;28.19;31.16;101119.95;107616;1274;96277;-70
2022/08/10 10:53:49;;;;;;;3.90;2.40;;;;;;;28.00;31.53;101120.29;107484;1274;138565;-70
2022/08/10 10:56:35;;;;;;;3.70;2.30;;;;;;;27.88;31.73;101114.09;107497;1276;108928;-69
2022/08/10 10:59:21;;;;;;;3.70;2.00;;;;;;;27.80;31.67;101110.86;107300;1276;106026;-69
2022/08/10 11:02:27;;;;;;;4.10;1.70;;;;;;;27.62;31.55;101108.04;106273;1276;1711384;-68
2022/08/10 11:05:11;;;;;;;3.90;1.90;;;;;;;27.65;31.88;101108.11;106915;1276;96568;-69
2022/08/10 11:07:49;;;;;;;4.00;1.40;;;;;;;27.83;32.43;101104.92;106198;1275;137607;-70
2022/08/10 11:10:30;;;;;;;2.70;1.50;;;;;;;28.03;32.59;101094.77;107240;1276;107816;-70
2022/08/10 11:13:25;;;;;;;2.10;1.40;;;;;;;28.44;32.55;101089.17;106106;1276;137952;-69
2022/08/10 11:16:27;;;;;;;1.70;1.40;;;;;;;28.89;32.05;101092.75;107204;1274;96648;-70
2022/08/10 11:19:13;;;;;;;3.90;1.20;;;;;;;29.26;31.72;101088.13;106016;1275;137772;-69
2022/08/10 11:21:54;;;;;;;1.60;1.10;;;;;;;29.60;31.31;101084.50;105861;1276;112728;-69
2022/08/10 11:24:43;;;;;;;1.80;1.00;;;;;;;29.85;31.17;101077.86;107197;1274;138406;-70
2022/08/10 11:27:32;;;;;;;4.20;1.40;;;;;;;30.07;30.52;101074.25;107601;1274;109049;-70
2022/08/10 11:30:10;;;;;;;6.50;1.80;;;;;;;30.19;30.50;101069.29;107491;1274;138120;-70
2022/08/10 11:32:54;;;;;;;1.20;1.10;;;;;;;30.20;30.02;101078.24;107611;1276;96208;-69
2022/08/10 11:35:33;;;;;;;2.90;1.30;;;;;;;30.19;30.09;101079.65;107416;1275;137937;-69
2022/08/10 11:38:15;;;;;;;3.20;1.40;;;;;;;30.24;29.95;101075.17;107264;1276;109020;-80
2022/08/10 11:41:19;;;;;;;4.50;1.30;;;;;;;30.07;29.93;101075.41;107515;1274;108813;-73
2022/08/10 11:44:16;;;;;;;2.50;1.10;;;;;;;29.71;30.29;101070.17;107552;1274;96195;-76
2022/08/10 11:46:55;;;;;;;1.70;1.40;;;;;;;29.26;30.57;101072.80;106373;1276;97840;-75
2022/08/10 11:49:31;;;;;;;4.30;1.70;;;;;;;28.88;31.11;101080.42;107406;1275;137659;-80
2022/08/10 11:52:10;;;;;;;6.20;2.00;;;;;;;28.52;31.45;101074.69;107397;1276;108906;-73
2022/08/10 11:54:47;;;;;;;2.50;1.20;;;;;;;28.21;31.45;101071.88;106101;1276;138087;-73
2022/08/10 11:57:22;;;;;;;3.60;1.10;;;;;;;27.94;31.50;101071.13;107531;1274;97470;-73
2022/08/10 12:00:16;;;;;;;2.60;1.30;;;;;;;27.68;31.58;101066.05;106660;1274;137978;-72
2022/08/10 12:02:53;;;;;;;5.00;0.90;;;;;;;27.49;31.98;101068.47;106021;1275;112054;-73
2022/08/10 12:05:29;;;;;;;2.40;1.10;;;;;;;27.48;32.09;101064.63;106219;1276;138535;-71
2022/08/10 12:08:22;;;;;;;3.20;1.90;;;;;;;27.59;32.71;101058.23;107472;1276;107866;-74
2022/08/10 12:11:21;;;;;;;2.50;1.70;;;;;;;27.64;32.49;101057.27;106928;1276;96679;-70